sensor_id;sensor_type;location;lat;lon;timestamp;P1;durP1;ratioP1;P2;durP2;ratioP2
75512;SDS011;64090;49.770;18.760;2022-11-20T00:01:31;57.90;;;32.30;;
75512;SDS011;64090;49.770;18.760;2022-11-20T00:04:00;54.20;;;28.80;;
75512;SDS011;64090;49.770;18.760;2022-11-20T00:06:29;58.90;;;30.90;;
75512;SDS011;64090;49.770;18.760;2022-11-20T00:08:58;52.90;;;28.80;;
75512;SDS011;64090;49.770;18.760;2022-11-20T00:11:28;52.30;;;32.70;;
75512;SDS011;64090;49.770;18.760;2022-11-20T00:13:59;51.90;;;31.20;;
75512;SDS011;64090;49.770;18.760;2022-11-20T00:16:29;60.20;;;30.10;;
75512;SDS011;64090;49.770;18.760;2022-11-20T00:18:58;60.20;;;29.80;;
75512;SDS011;64090;49.770;18.760;2022-11-20T00:21:27;63.20;;;30.90;;
75512;SDS011;64090;49.770;18.760;2022-11-20T00:23:56;58.70;;;30.30;;
75512;SDS011;64090;49.770;18.760;2022-11-20T00:26:25;35.20;;;18.80;;
75512;SDS011;64090;49.770;18.760;2022-11-20T00:28:56;41.50;;;20.90;;
75512;SDS011;64090;49.770;18.760;2022-11-20T00:31:25;32.90;;;18.00;;
75512;SDS011;64090;49.770;18.760;2022-11-20T00:33:53;46.20;;;25.10;;
75512;SDS011;64090;49.770;18.760;2022-11-20T00:36:22;47.00;;;24.60;;
75512;SDS011;64090;49.770;18.760;2022-11-20T00:38:52;48.90;;;25.20;;
75512;SDS011;64090;49.770;18.760;2022-11-20T00:41:21;50.00;;;24.60;;
75512;SDS011;64090;49.770;18.760;2022-11-20T00:43:53;47.40;;;26.20;;
75512;SDS011;64090;49.770;18.760;2022-11-20T00:46:23;45.70;;;25.60;;
75512;SDS011;64090;49.770;18.760;2022-11-20T00:48:55;45.90;;;26.50;;
75512;SDS011;64090;49.770;18.760;2022-11-20T00:51:27;46.00;;;27.20;;
75512;SDS011;64090;49.770;18.760;2022-11-20T00:53:56;48.50;;;24.30;;
75512;SDS011;64090;49.770;18.760;2022-11-20T00:56:25;51.40;;;30.80;;
75512;SDS011;64090;49.770;18.760;2022-11-20T00:58:58;54.90;;;32.70;;
75512;SDS011;64090;49.770;18.760;2022-11-20T01:01:31;54.60;;;28.90;;
75512;SDS011;64090;49.770;18.760;2022-11-20T01:04:03;65.10;;;30.50;;
75512;SDS011;64090;49.770;18.760;2022-11-20T01:06:36;61.10;;;31.50;;
75512;SDS011;64090;49.770;18.760;2022-11-20T01:09:07;56.90;;;30.70;;
75512;SDS011;64090;49.770;18.760;2022-11-20T01:11:41;56.10;;;32.90;;
75512;SDS011;64090;49.770;18.760;2022-11-20T01:16:45;54.00;;;30.30;;
75512;SDS011;64090;49.770;18.760;2022-11-20T01:19:22;62.50;;;31.80;;
75512;SDS011;64090;49.770;18.760;2022-11-20T01:21:52;59.20;;;29.70;;
75512;SDS011;64090;49.770;18.760;2022-11-20T01:24:24;55.90;;;30.50;;
75512;SDS011;64090;49.770;18.760;2022-11-20T01:26:56;70.80;;;34.90;;
75512;SDS011;64090;49.770;18.760;2022-11-20T01:29:24;69.60;;;35.60;;
75512;SDS011;64090;49.770;18.760;2022-11-20T01:31:52;64.30;;;34.90;;
75512;SDS011;64090;49.770;18.760;2022-11-20T01:34:20;67.30;;;36.30;;
75512;SDS011;64090;49.770;18.760;2022-11-20T01:36:49;62.30;;;36.20;;
75512;SDS011;64090;49.770;18.760;2022-11-20T01:39:22;61.20;;;33.60;;
75512;SDS011;64090;49.770;18.760;2022-11-20T01:41:52;59.00;;;32.10;;
75512;SDS011;64090;49.770;18.760;2022-11-20T01:44:51;57.10;;;31.40;;
75512;SDS011;64090;49.770;18.760;2022-11-20T01:47:40;58.10;;;34.40;;
75512;SDS011;64090;49.770;18.760;2022-11-20T01:50:24;66.60;;;34.50;;
75512;SDS011;64090;49.770;18.760;2022-11-20T01:52:58;70.70;;;44.00;;
75512;SDS011;64090;49.770;18.760;2022-11-20T01:55:33;63.60;;;37.60;;
75512;SDS011;64090;49.770;18.760;2022-11-20T01:58:05;61.10;;;31.30;;
75512;SDS011;64090;49.770;18.760;2022-11-20T02:00:33;60.30;;;32.60;;
75512;SDS011;64090;49.770;18.760;2022-11-20T02:03:02;51.00;;;28.60;;
75512;SDS011;64090;49.770;18.760;2022-11-20T02:05:35;51.20;;;28.40;;
75512;SDS011;64090;49.770;18.760;2022-11-20T02:08:09;58.80;;;33.20;;
75512;SDS011;64090;49.770;18.760;2022-11-20T02:10:37;48.20;;;27.00;;
75512;SDS011;64090;49.770;18.760;2022-11-20T02:13:05;67.20;;;32.90;;
75512;SDS011;64090;49.770;18.760;2022-11-20T02:15:51;64.80;;;35.50;;
75512;SDS011;64090;49.770;18.760;2022-11-20T02:18:20;60.30;;;32.40;;
75512;SDS011;64090;49.770;18.760;2022-11-20T02:23:53;54.10;;;28.60;;
75512;SDS011;64090;49.770;18.760;2022-11-20T02:26:21;52.70;;;29.30;;
75512;SDS011;64090;49.770;18.760;2022-11-20T02:28:50;53.20;;;29.00;;
75512;SDS011;64090;49.770;18.760;2022-11-20T02:31:18;55.70;;;31.90;;
75512;SDS011;64090;49.770;18.760;2022-11-20T02:33:46;48.00;;;26.70;;
75512;SDS011;64090;49.770;18.760;2022-11-20T02:36:14;48.80;;;29.70;;
75512;SDS011;64090;49.770;18.760;2022-11-20T02:38:43;64.70;;;32.40;;
75512;SDS011;64090;49.770;18.760;2022-11-20T02:41:11;59.70;;;31.90;;
75512;SDS011;64090;49.770;18.760;2022-11-20T02:43:39;60.50;;;30.80;;
75512;SDS011;64090;49.770;18.760;2022-11-20T02:46:07;50.20;;;28.00;;
75512;SDS011;64090;49.770;18.760;2022-11-20T02:48:35;55.70;;;28.20;;
75512;SDS011;64090;49.770;18.760;2022-11-20T02:51:03;52.90;;;27.20;;
75512;SDS011;64090;49.770;18.760;2022-11-20T02:53:31;51.00;;;28.00;;
75512;SDS011;64090;49.770;18.760;2022-11-20T02:55:59;55.30;;;27.70;;
75512;SDS011;64090;49.770;18.760;2022-11-20T02:58:27;44.60;;;28.30;;
75512;SDS011;64090;49.770;18.760;2022-11-20T03:00:55;45.80;;;23.70;;
75512;SDS011;64090;49.770;18.760;2022-11-20T03:03:22;43.90;;;25.40;;
75512;SDS011;64090;49.770;18.760;2022-11-20T03:05:50;36.90;;;22.50;;
75512;SDS011;64090;49.770;18.760;2022-11-20T03:08:18;54.20;;;27.60;;
75512;SDS011;64090;49.770;18.760;2022-11-20T03:10:46;51.40;;;29.10;;
75512;SDS011;64090;49.770;18.760;2022-11-20T03:13:14;57.70;;;31.40;;
75512;SDS011;64090;49.770;18.760;2022-11-20T03:15:42;59.30;;;28.50;;
75512;SDS011;64090;49.770;18.760;2022-11-20T03:18:09;48.20;;;25.20;;
75512;SDS011;64090;49.770;18.760;2022-11-20T03:20:40;45.80;;;23.10;;
75512;SDS011;64090;49.770;18.760;2022-11-20T03:23:12;45.10;;;24.60;;
75512;SDS011;64090;49.770;18.760;2022-11-20T03:25:40;43.00;;;23.90;;
75512;SDS011;64090;49.770;18.760;2022-11-20T03:28:07;41.60;;;27.60;;
75512;SDS011;64090;49.770;18.760;2022-11-20T03:30:35;45.80;;;25.60;;
75512;SDS011;64090;49.770;18.760;2022-11-20T03:33:03;68.10;;;32.80;;
75512;SDS011;64090;49.770;18.760;2022-11-20T03:35:31;53.70;;;29.50;;
75512;SDS011;64090;49.770;18.760;2022-11-20T03:37:59;56.80;;;29.80;;
75512;SDS011;64090;49.770;18.760;2022-11-20T03:40:26;47.80;;;27.30;;
75512;SDS011;64090;49.770;18.760;2022-11-20T03:42:54;48.90;;;26.30;;
75512;SDS011;64090;49.770;18.760;2022-11-20T03:45:22;46.70;;;28.80;;
75512;SDS011;64090;49.770;18.760;2022-11-20T03:47:50;43.20;;;23.70;;
75512;SDS011;64090;49.770;18.760;2022-11-20T03:50:22;33.10;;;20.30;;
75512;SDS011;64090;49.770;18.760;2022-11-20T03:52:50;42.70;;;22.70;;
75512;SDS011;64090;49.770;18.760;2022-11-20T03:55:18;48.90;;;25.80;;
75512;SDS011;64090;49.770;18.760;2022-11-20T03:57:46;54.50;;;28.60;;
75512;SDS011;64090;49.770;18.760;2022-11-20T04:00:14;57.30;;;31.40;;
75512;SDS011;64090;49.770;18.760;2022-11-20T04:02:42;50.00;;;28.80;;
75512;SDS011;64090;49.770;18.760;2022-11-20T04:05:10;47.60;;;30.50;;
75512;SDS011;64090;49.770;18.760;2022-11-20T04:07:38;46.60;;;29.70;;
75512;SDS011;64090;49.770;18.760;2022-11-20T04:10:06;46.80;;;26.30;;
75512;SDS011;64090;49.770;18.760;2022-11-20T04:12:34;44.80;;;24.50;;
75512;SDS011;64090;49.770;18.760;2022-11-20T04:15:02;43.90;;;22.90;;
75512;SDS011;64090;49.770;18.760;2022-11-20T04:17:29;44.40;;;25.30;;
75512;SDS011;64090;49.770;18.760;2022-11-20T04:19:57;47.40;;;28.60;;
75512;SDS011;64090;49.770;18.760;2022-11-20T04:22:25;45.40;;;26.10;;
75512;SDS011;64090;49.770;18.760;2022-11-20T04:24:53;46.60;;;25.10;;
75512;SDS011;64090;49.770;18.760;2022-11-20T04:27:21;41.50;;;25.80;;
75512;SDS011;64090;49.770;18.760;2022-11-20T04:29:48;47.20;;;23.80;;
75512;SDS011;64090;49.770;18.760;2022-11-20T04:32:16;41.20;;;22.70;;
75512;SDS011;64090;49.770;18.760;2022-11-20T04:34:44;39.60;;;23.20;;
75512;SDS011;64090;49.770;18.760;2022-11-20T04:37:12;41.40;;;21.80;;
75512;SDS011;64090;49.770;18.760;2022-11-20T04:39:40;39.40;;;22.20;;
75512;SDS011;64090;49.770;18.760;2022-11-20T04:42:08;33.60;;;20.20;;
75512;SDS011;64090;49.770;18.760;2022-11-20T04:44:56;33.40;;;18.30;;
75512;SDS011;64090;49.770;18.760;2022-11-20T04:47:24;38.20;;;19.70;;
75512;SDS011;64090;49.770;18.760;2022-11-20T04:49:56;37.40;;;19.70;;
75512;SDS011;64090;49.770;18.760;2022-11-20T04:54:26;38.00;;;21.30;;
75512;SDS011;64090;49.770;18.760;2022-11-20T04:56:54;46.40;;;26.10;;
75512;SDS011;64090;49.770;18.760;2022-11-20T04:59:22;44.80;;;22.20;;
75512;SDS011;64090;49.770;18.760;2022-11-20T05:01:50;39.30;;;21.70;;
75512;SDS011;64090;49.770;18.760;2022-11-20T05:04:18;39.60;;;22.70;;
75512;SDS011;64090;49.770;18.760;2022-11-20T05:06:46;39.90;;;22.50;;
75512;SDS011;64090;49.770;18.760;2022-11-20T05:09:14;42.20;;;24.50;;
75512;SDS011;64090;49.770;18.760;2022-11-20T05:11:42;50.50;;;24.70;;
75512;SDS011;64090;49.770;18.760;2022-11-20T05:14:11;46.70;;;24.70;;
75512;SDS011;64090;49.770;18.760;2022-11-20T05:16:39;49.70;;;25.50;;
75512;SDS011;64090;49.770;18.760;2022-11-20T05:19:06;49.80;;;24.10;;
75512;SDS011;64090;49.770;18.760;2022-11-20T05:21:35;45.20;;;23.70;;
75512;SDS011;64090;49.770;18.760;2022-11-20T05:24:02;46.00;;;23.60;;
75512;SDS011;64090;49.770;18.760;2022-11-20T05:26:32;47.00;;;27.10;;
75512;SDS011;64090;49.770;18.760;2022-11-20T05:29:00;48.00;;;22.90;;
75512;SDS011;64090;49.770;18.760;2022-11-20T05:31:28;44.70;;;22.40;;
75512;SDS011;64090;49.770;18.760;2022-11-20T05:33:56;43.90;;;21.60;;
75512;SDS011;64090;49.770;18.760;2022-11-20T05:36:24;50.40;;;25.30;;
75512;SDS011;64090;49.770;18.760;2022-11-20T05:49:00;36.70;;;21.10;;
75512;SDS011;64090;49.770;18.760;2022-11-20T05:51:28;39.10;;;21.30;;
75512;SDS011;64090;49.770;18.760;2022-11-20T05:54:00;42.20;;;23.50;;
75512;SDS011;64090;49.770;18.760;2022-11-20T05:56:27;37.60;;;19.50;;
75512;SDS011;64090;49.770;18.760;2022-11-20T05:58:55;41.40;;;20.50;;
75512;SDS011;64090;49.770;18.760;2022-11-20T06:01:24;46.90;;;25.20;;
75512;SDS011;64090;49.770;18.760;2022-11-20T06:03:53;44.60;;;23.50;;
75512;SDS011;64090;49.770;18.760;2022-11-20T06:06:21;50.10;;;22.20;;
75512;SDS011;64090;49.770;18.760;2022-11-20T06:08:50;46.50;;;24.00;;
75512;SDS011;64090;49.770;18.760;2022-11-20T06:11:18;43.30;;;22.90;;
75512;SDS011;64090;49.770;18.760;2022-11-20T06:13:46;43.50;;;24.90;;
75512;SDS011;64090;49.770;18.760;2022-11-20T06:16:16;40.80;;;21.30;;
75512;SDS011;64090;49.770;18.760;2022-11-20T06:21:16;62.30;;;36.60;;
75512;SDS011;64090;49.770;18.760;2022-11-20T06:23:47;55.50;;;33.40;;
75512;SDS011;64090;49.770;18.760;2022-11-20T06:26:16;46.80;;;25.60;;
75512;SDS011;64090;49.770;18.760;2022-11-20T06:28:46;41.60;;;21.40;;
75512;SDS011;64090;49.770;18.760;2022-11-20T06:31:15;46.30;;;25.60;;
75512;SDS011;64090;49.770;18.760;2022-11-20T06:33:46;43.60;;;22.00;;
75512;SDS011;64090;49.770;18.760;2022-11-20T06:36:16;49.60;;;24.70;;
75512;SDS011;64090;49.770;18.760;2022-11-20T06:38:45;49.60;;;24.20;;
75512;SDS011;64090;49.770;18.760;2022-11-20T06:41:14;45.70;;;22.80;;
75512;SDS011;64090;49.770;18.760;2022-11-20T06:43:44;39.90;;;23.20;;
75512;SDS011;64090;49.770;18.760;2022-11-20T06:46:12;46.80;;;23.50;;
75512;SDS011;64090;49.770;18.760;2022-11-20T06:48:41;42.70;;;24.70;;
75512;SDS011;64090;49.770;18.760;2022-11-20T06:51:09;45.80;;;25.00;;
75512;SDS011;64090;49.770;18.760;2022-11-20T06:53:37;60.00;;;29.30;;
75512;SDS011;64090;49.770;18.760;2022-11-20T06:56:06;56.50;;;29.10;;
75512;SDS011;64090;49.770;18.760;2022-11-20T06:58:35;86.00;;;36.00;;
75512;SDS011;64090;49.770;18.760;2022-11-20T07:01:06;64.70;;;30.60;;
75512;SDS011;64090;49.770;18.760;2022-11-20T07:03:36;54.30;;;27.50;;
75512;SDS011;64090;49.770;18.760;2022-11-20T07:06:04;58.20;;;28.60;;
75512;SDS011;64090;49.770;18.760;2022-11-20T07:08:33;46.20;;;27.60;;
75512;SDS011;64090;49.770;18.760;2022-11-20T07:11:02;47.60;;;27.00;;
75512;SDS011;64090;49.770;18.760;2022-11-20T07:13:32;50.90;;;25.80;;
75512;SDS011;64090;49.770;18.760;2022-11-20T07:16:01;54.90;;;28.50;;
75512;SDS011;64090;49.770;18.760;2022-11-20T07:18:31;56.20;;;26.70;;
75512;SDS011;64090;49.770;18.760;2022-11-20T07:21:03;57.90;;;31.90;;
75512;SDS011;64090;49.770;18.760;2022-11-20T07:23:32;59.90;;;32.30;;
75512;SDS011;64090;49.770;18.760;2022-11-20T07:26:07;58.40;;;33.30;;
75512;SDS011;64090;49.770;18.760;2022-11-20T07:28:37;49.40;;;25.30;;
75512;SDS011;64090;49.770;18.760;2022-11-20T07:31:05;43.80;;;26.20;;
75512;SDS011;64090;49.770;18.760;2022-11-20T07:33:35;42.50;;;24.20;;
75512;SDS011;64090;49.770;18.760;2022-11-20T07:36:02;47.70;;;26.70;;
75512;SDS011;64090;49.770;18.760;2022-11-20T07:38:31;46.60;;;25.00;;
75512;SDS011;64090;49.770;18.760;2022-11-20T07:40:58;45.00;;;23.00;;
75512;SDS011;64090;49.770;18.760;2022-11-20T07:43:29;42.10;;;24.00;;
75512;SDS011;64090;49.770;18.760;2022-11-20T07:45:57;46.10;;;28.90;;
75512;SDS011;64090;49.770;18.760;2022-11-20T07:48:26;46.40;;;24.80;;
75512;SDS011;64090;49.770;18.760;2022-11-20T07:50:57;48.00;;;25.90;;
75512;SDS011;64090;49.770;18.760;2022-11-20T07:53:25;50.40;;;30.00;;
75512;SDS011;64090;49.770;18.760;2022-11-20T07:57:24;50.80;;;28.20;;
75512;SDS011;64090;49.770;18.760;2022-11-20T07:59:55;47.90;;;26.90;;
75512;SDS011;64090;49.770;18.760;2022-11-20T08:02:22;45.70;;;27.80;;
75512;SDS011;64090;49.770;18.760;2022-11-20T08:04:50;55.00;;;29.10;;
75512;SDS011;64090;49.770;18.760;2022-11-20T08:07:19;44.90;;;23.80;;
75512;SDS011;64090;49.770;18.760;2022-11-20T08:09:47;45.80;;;24.80;;
75512;SDS011;64090;49.770;18.760;2022-11-20T08:13:38;49.20;;;26.30;;
75512;SDS011;64090;49.770;18.760;2022-11-20T08:16:24;61.50;;;34.30;;
75512;SDS011;64090;49.770;18.760;2022-11-20T08:18:55;56.70;;;31.30;;
75512;SDS011;64090;49.770;18.760;2022-11-20T08:21:27;61.40;;;30.50;;
75512;SDS011;64090;49.770;18.760;2022-11-20T08:24:00;52.90;;;29.80;;
75512;SDS011;64090;49.770;18.760;2022-11-20T08:26:29;55.10;;;32.20;;
75512;SDS011;64090;49.770;18.760;2022-11-20T08:28:57;57.30;;;33.90;;
75512;SDS011;64090;49.770;18.760;2022-11-20T08:31:26;56.10;;;33.80;;
75512;SDS011;64090;49.770;18.760;2022-11-20T08:33:55;52.00;;;30.90;;
75512;SDS011;64090;49.770;18.760;2022-11-20T08:36:25;54.50;;;29.60;;
75512;SDS011;64090;49.770;18.760;2022-11-20T08:39:00;52.50;;;29.30;;
75512;SDS011;64090;49.770;18.760;2022-11-20T08:41:29;45.60;;;24.60;;
75512;SDS011;64090;49.770;18.760;2022-11-20T08:44:04;53.70;;;31.30;;
75512;SDS011;64090;49.770;18.760;2022-11-20T08:46:36;48.30;;;30.40;;
75512;SDS011;64090;49.770;18.760;2022-11-20T08:49:10;45.20;;;26.80;;
75512;SDS011;64090;49.770;18.760;2022-11-20T08:51:39;47.10;;;24.70;;
75512;SDS011;64090;49.770;18.760;2022-11-20T08:54:10;39.00;;;24.40;;
75512;SDS011;64090;49.770;18.760;2022-11-20T08:56:41;53.10;;;30.80;;
75512;SDS011;64090;49.770;18.760;2022-11-20T08:59:13;55.50;;;33.20;;
75512;SDS011;64090;49.770;18.760;2022-11-20T09:02:01;51.00;;;30.00;;
75512;SDS011;64090;49.770;18.760;2022-11-20T09:04:28;50.50;;;31.60;;
75512;SDS011;64090;49.770;18.760;2022-11-20T09:06:56;43.90;;;26.70;;
75512;SDS011;64090;49.770;18.760;2022-11-20T09:09:24;45.40;;;27.40;;
75512;SDS011;64090;49.770;18.760;2022-11-20T09:11:52;45.20;;;27.10;;
75512;SDS011;64090;49.770;18.760;2022-11-20T09:14:20;48.30;;;27.90;;
75512;SDS011;64090;49.770;18.760;2022-11-20T09:16:48;45.70;;;24.70;;
75512;SDS011;64090;49.770;18.760;2022-11-20T09:19:16;48.20;;;26.70;;
75512;SDS011;64090;49.770;18.760;2022-11-20T09:22:02;48.50;;;27.00;;
75512;SDS011;64090;49.770;18.760;2022-11-20T09:24:30;45.00;;;24.60;;
75512;SDS011;64090;49.770;18.760;2022-11-20T09:26:58;40.50;;;21.40;;
75512;SDS011;64090;49.770;18.760;2022-11-20T09:29:29;42.40;;;26.50;;
75512;SDS011;64090;49.770;18.760;2022-11-20T09:31:57;43.40;;;22.60;;
75512;SDS011;64090;49.770;18.760;2022-11-20T09:34:25;52.50;;;29.00;;
75512;SDS011;64090;49.770;18.760;2022-11-20T09:36:52;43.00;;;22.70;;
75512;SDS011;64090;49.770;18.760;2022-11-20T09:39:20;41.80;;;23.50;;
75512;SDS011;64090;49.770;18.760;2022-11-20T09:56:02;28.70;;;15.70;;
75512;SDS011;64090;49.770;18.760;2022-11-20T09:58:38;31.50;;;14.60;;
75512;SDS011;64090;49.770;18.760;2022-11-20T10:01:12;29.80;;;16.90;;
75512;SDS011;64090;49.770;18.760;2022-11-20T10:06:29;42.00;;;23.10;;
75512;SDS011;64090;49.770;18.760;2022-11-20T10:09:39;41.60;;;23.20;;
75512;SDS011;64090;49.770;18.760;2022-11-20T10:14:52;36.90;;;22.20;;
75512;SDS011;64090;49.770;18.760;2022-11-20T10:25:59;35.70;;;19.60;;
75512;SDS011;64090;49.770;18.760;2022-11-20T10:31:38;37.60;;;21.60;;
75512;SDS011;64090;49.770;18.760;2022-11-20T10:39:40;31.10;;;17.50;;
75512;SDS011;64090;49.770;18.760;2022-11-20T10:42:15;30.70;;;17.80;;
75512;SDS011;64090;49.770;18.760;2022-11-20T10:44:51;29.80;;;17.30;;
75512;SDS011;64090;49.770;18.760;2022-11-20T10:47:32;38.60;;;21.10;;
75512;SDS011;64090;49.770;18.760;2022-11-20T10:50:03;38.50;;;21.60;;
75512;SDS011;64090;49.770;18.760;2022-11-20T10:55:39;32.30;;;20.30;;
75512;SDS011;64090;49.770;18.760;2022-11-20T11:01:19;34.80;;;20.50;;
75512;SDS011;64090;49.770;18.760;2022-11-20T11:03:51;25.60;;;15.60;;
75512;SDS011;64090;49.770;18.760;2022-11-20T11:06:36;23.00;;;15.60;;
75512;SDS011;64090;49.770;18.760;2022-11-20T11:09:18;34.20;;;19.00;;
75512;SDS011;64090;49.770;18.760;2022-11-20T11:14:20;30.00;;;17.80;;
75512;SDS011;64090;49.770;18.760;2022-11-20T11:16:52;30.80;;;18.70;;
75512;SDS011;64090;49.770;18.760;2022-11-20T11:19:24;23.90;;;13.40;;
75512;SDS011;64090;49.770;18.760;2022-11-20T11:21:56;32.50;;;20.30;;
75512;SDS011;64090;49.770;18.760;2022-11-20T11:24:28;28.50;;;15.70;;
75512;SDS011;64090;49.770;18.760;2022-11-20T11:29:45;30.00;;;17.50;;
75512;SDS011;64090;49.770;18.760;2022-11-20T11:32:15;26.80;;;15.90;;
75512;SDS011;64090;49.770;18.760;2022-11-20T11:34:59;30.40;;;16.50;;
75512;SDS011;64090;49.770;18.760;2022-11-20T11:37:33;27.90;;;16.20;;
75512;SDS011;64090;49.770;18.760;2022-11-20T11:40:03;24.10;;;13.40;;
75512;SDS011;64090;49.770;18.760;2022-11-20T11:42:54;26.80;;;13.80;;
75512;SDS011;64090;49.770;18.760;2022-11-20T11:45:26;26.70;;;15.10;;
75512;SDS011;64090;49.770;18.760;2022-11-20T11:47:58;32.30;;;17.90;;
75512;SDS011;64090;49.770;18.760;2022-11-20T11:50:30;28.00;;;16.60;;
75512;SDS011;64090;49.770;18.760;2022-11-20T12:09:49;17.70;;;10.10;;
75512;SDS011;64090;49.770;18.760;2022-11-20T12:11:58;21.90;;;10.40;;
75512;SDS011;64090;49.770;18.760;2022-11-20T12:14:21;22.90;;;12.90;;
75512;SDS011;64090;49.770;18.760;2022-11-20T12:16:34;20.30;;;12.20;;
75512;SDS011;64090;49.770;18.760;2022-11-20T12:18:40;18.00;;;9.90;;
75512;SDS011;64090;49.770;18.760;2022-11-20T12:20:45;29.50;;;17.00;;
75512;SDS011;64090;49.770;18.760;2022-11-20T12:23:16;17.90;;;11.10;;
75512;SDS011;64090;49.770;18.760;2022-11-20T12:25:30;21.50;;;12.50;;
75512;SDS011;64090;49.770;18.760;2022-11-20T12:40:06;18.00;;;10.10;;
75512;SDS011;64090;49.770;18.760;2022-11-20T12:44:59;21.80;;;12.30;;
75512;SDS011;64090;49.770;18.760;2022-11-20T12:59:46;26.70;;;15.10;;
75512;SDS011;64090;49.770;18.760;2022-11-20T13:07:05;17.90;;;10.30;;
75512;SDS011;64090;49.770;18.760;2022-11-20T13:09:15;19.30;;;12.80;;
75512;SDS011;64090;49.770;18.760;2022-11-20T13:16:50;20.40;;;12.70;;
75512;SDS011;64090;49.770;18.760;2022-11-20T13:19:05;17.30;;;9.10;;
75512;SDS011;64090;49.770;18.760;2022-11-20T13:21:13;21.00;;;11.70;;
75512;SDS011;64090;49.770;18.760;2022-11-20T13:23:34;27.90;;;16.50;;
75512;SDS011;64090;49.770;18.760;2022-11-20T13:25:36;30.00;;;19.90;;
75512;SDS011;64090;49.770;18.760;2022-11-20T13:27:46;26.10;;;17.30;;
75512;SDS011;64090;49.770;18.760;2022-11-20T13:30:00;19.90;;;11.80;;
75512;SDS011;64090;49.770;18.760;2022-11-20T13:32:20;18.50;;;11.80;;
75512;SDS011;64090;49.770;18.760;2022-11-20T13:34:25;17.20;;;11.30;;
75512;SDS011;64090;49.770;18.760;2022-11-20T13:36:28;17.80;;;11.60;;
75512;SDS011;64090;49.770;18.760;2022-11-20T13:38:41;17.60;;;10.60;;
75512;SDS011;64090;49.770;18.760;2022-11-20T13:40:59;18.30;;;10.90;;
75512;SDS011;64090;49.770;18.760;2022-11-20T13:43:37;17.30;;;10.20;;
75512;SDS011;64090;49.770;18.760;2022-11-20T13:45:42;21.30;;;10.80;;
75512;SDS011;64090;49.770;18.760;2022-11-20T13:47:50;18.70;;;11.60;;
75512;SDS011;64090;49.770;18.760;2022-11-20T13:49:53;24.10;;;13.50;;
75512;SDS011;64090;49.770;18.760;2022-11-20T13:52:00;27.00;;;14.40;;
75512;SDS011;64090;49.770;18.760;2022-11-20T13:59:39;58.60;;;28.80;;
75512;SDS011;64090;49.770;18.760;2022-11-20T14:01:55;42.20;;;22.00;;
75512;SDS011;64090;49.770;18.760;2022-11-20T14:03:57;37.30;;;21.70;;
75512;SDS011;64090;49.770;18.760;2022-11-20T14:08:35;35.30;;;21.30;;
75512;SDS011;64090;49.770;18.760;2022-11-20T14:10:41;33.80;;;22.50;;
75512;SDS011;64090;49.770;18.760;2022-11-20T14:12:42;31.80;;;17.50;;
75512;SDS011;64090;49.770;18.760;2022-11-20T14:14:50;26.90;;;15.30;;
75512;SDS011;64090;49.770;18.760;2022-11-20T14:19:25;33.00;;;20.20;;
75512;SDS011;64090;49.770;18.760;2022-11-20T14:21:29;39.30;;;21.50;;
75512;SDS011;64090;49.770;18.760;2022-11-20T14:23:30;32.10;;;17.60;;
75512;SDS011;64090;49.770;18.760;2022-11-20T14:25:32;25.80;;;15.40;;
75512;SDS011;64090;49.770;18.760;2022-11-20T14:27:35;21.60;;;11.20;;
75512;SDS011;64090;49.770;18.760;2022-11-20T14:29:38;21.90;;;11.40;;
75512;SDS011;64090;49.770;18.760;2022-11-20T14:31:42;22.80;;;12.50;;
75512;SDS011;64090;49.770;18.760;2022-11-20T14:33:45;22.70;;;12.50;;
75512;SDS011;64090;49.770;18.760;2022-11-20T14:35:49;20.00;;;10.30;;
75512;SDS011;64090;49.770;18.760;2022-11-20T14:37:55;16.30;;;9.70;;
75512;SDS011;64090;49.770;18.760;2022-11-20T14:39:58;17.60;;;9.10;;
75512;SDS011;64090;49.770;18.760;2022-11-20T14:42:02;16.00;;;9.40;;
75512;SDS011;64090;49.770;18.760;2022-11-20T14:44:15;16.20;;;7.50;;
75512;SDS011;64090;49.770;18.760;2022-11-20T14:46:17;15.60;;;9.00;;
75512;SDS011;64090;49.770;18.760;2022-11-20T14:48:18;14.20;;;7.30;;
75512;SDS011;64090;49.770;18.760;2022-11-20T14:50:24;19.70;;;10.50;;
75512;SDS011;64090;49.770;18.760;2022-11-20T14:52:28;21.30;;;10.70;;
75512;SDS011;64090;49.770;18.760;2022-11-20T14:54:29;17.90;;;11.30;;
75512;SDS011;64090;49.770;18.760;2022-11-20T14:56:31;21.80;;;11.80;;
75512;SDS011;64090;49.770;18.760;2022-11-20T14:58:33;20.80;;;11.00;;
75512;SDS011;64090;49.770;18.760;2022-11-20T15:00:35;17.90;;;8.90;;
75512;SDS011;64090;49.770;18.760;2022-11-20T15:02:43;19.80;;;9.80;;
75512;SDS011;64090;49.770;18.760;2022-11-20T15:04:50;18.50;;;9.20;;
75512;SDS011;64090;49.770;18.760;2022-11-20T15:06:58;11.60;;;5.90;;
75512;SDS011;64090;49.770;18.760;2022-11-20T15:09:02;15.50;;;9.20;;
75512;SDS011;64090;49.770;18.760;2022-11-20T15:11:14;11.90;;;6.10;;
75512;SDS011;64090;49.770;18.760;2022-11-20T15:15:47;19.10;;;10.50;;
75512;SDS011;64090;49.770;18.760;2022-11-20T15:17:50;24.10;;;11.80;;
75512;SDS011;64090;49.770;18.760;2022-11-20T15:19:52;21.00;;;10.20;;
75512;SDS011;64090;49.770;18.760;2022-11-20T15:21:54;19.10;;;7.80;;
75512;SDS011;64090;49.770;18.760;2022-11-20T15:23:56;16.00;;;8.90;;
75512;SDS011;64090;49.770;18.760;2022-11-20T15:25:58;19.60;;;8.70;;
75512;SDS011;64090;49.770;18.760;2022-11-20T15:27:59;16.60;;;8.60;;
75512;SDS011;64090;49.770;18.760;2022-11-20T15:30:01;15.50;;;7.10;;
75512;SDS011;64090;49.770;18.760;2022-11-20T15:32:02;17.50;;;9.60;;
75512;SDS011;64090;49.770;18.760;2022-11-20T15:36:15;20.60;;;10.80;;
75512;SDS011;64090;49.770;18.760;2022-11-20T15:38:16;20.80;;;11.50;;
75512;SDS011;64090;49.770;18.760;2022-11-20T15:40:18;19.90;;;11.10;;
75512;SDS011;64090;49.770;18.760;2022-11-20T15:42:19;19.20;;;10.30;;
75512;SDS011;64090;49.770;18.760;2022-11-20T15:44:21;18.70;;;10.70;;
75512;SDS011;64090;49.770;18.760;2022-11-20T15:46:25;20.50;;;11.90;;
75512;SDS011;64090;49.770;18.760;2022-11-20T15:48:33;19.10;;;10.50;;
75512;SDS011;64090;49.770;18.760;2022-11-20T15:50:36;18.70;;;10.60;;
75512;SDS011;64090;49.770;18.760;2022-11-20T15:52:40;18.30;;;9.80;;
75512;SDS011;64090;49.770;18.760;2022-11-20T15:54:43;22.20;;;11.40;;
75512;SDS011;64090;49.770;18.760;2022-11-20T15:56:44;23.10;;;13.40;;
75512;SDS011;64090;49.770;18.760;2022-11-20T15:58:46;20.70;;;11.40;;
75512;SDS011;64090;49.770;18.760;2022-11-20T16:00:47;25.10;;;13.20;;
75512;SDS011;64090;49.770;18.760;2022-11-20T16:02:48;22.10;;;13.50;;
75512;SDS011;64090;49.770;18.760;2022-11-20T16:04:50;24.30;;;11.70;;
75512;SDS011;64090;49.770;18.760;2022-11-20T16:06:51;21.10;;;12.50;;
75512;SDS011;64090;49.770;18.760;2022-11-20T16:08:53;25.50;;;12.50;;
75512;SDS011;64090;49.770;18.760;2022-11-20T16:10:54;21.30;;;12.00;;
75512;SDS011;64090;49.770;18.760;2022-11-20T16:12:56;30.10;;;16.00;;